sensor_id;sensor_type;location;lat;lon;timestamp;pressure;altitude;pressure_sealevel;temperature;humidity
64025;BME280;50266;57.446;26.936;2023-07-29T00:00:14;98036.28;;;12.87;100.0
64025;BME280;50266;57.446;26.936;2023-07-29T00:01:14;98035.7;;;12.9;100.0
64025;BME280;50266;57.446;26.936;2023-07-29T00:02:14;98036.48;;;12.92;100.0
64025;BME280;50266;57.446;26.936;2023-07-29T00:03:14;98036.86;;;12.89;100.0
64025;BME280;50266;57.446;26.936;2023-07-29T00:04:14;98037.88;;;12.88;100.0
64025;BME280;50266;57.446;26.936;2023-07-29T00:05:14;98037.77;;;12.85;100.0
64025;BME280;50266;57.446;26.936;2023-07-29T00:06:14;98038.57;;;12.82;100.0
64025;BME280;50266;57.446;26.936;2023-07-29T00:07:14;98034.55;;;12.9;100.0
64025;BME280;50266;57.446;26.936;2023-07-29T00:08:14;98035.62;;;12.9;100.0
64025;BME280;50266;57.446;26.936;2023-07-29T00:09:14;98035.47;;;12.88;100.0
64025;BME280;50266;57.446;26.936;2023-07-29T00:10:14;98032.59;;;12.84;100.0
64025;BME280;50266;57.446;26.936;2023-07-29T00:11:14;98033.86;;;12.86;100.0
64025;BME280;50266;57.446;26.936;2023-07-29T00:12:14;98032.33;;;12.83;100.0
64025;BME280;50266;57.446;26.936;2023-07-29T00:13:14;98030.03;;;12.89;100.0
64025;BME280;50266;57.446;26.936;2023-07-29T00:14:14;98025.71;;;12.9;100.0
64025;BME280;50266;57.446;26.936;2023-07-29T00:15:14;98028.96;;;12.87;100.0
64025;BME280;50266;57.446;26.936;2023-07-29T00:16:14;98027.03;;;12.79;100.0
64025;BME280;50266;57.446;26.936;2023-07-29T00:17:14;98028.02;;;12.84;100.0
64025;BME280;50266;57.446;26.936;2023-07-29T00:18:14;98027.36;;;12.86;100.0
64025;BME280;50266;57.446;26.936;2023-07-29T00:19:14;98026.28;;;12.86;100.0
64025;BME280;50266;57.446;26.936;2023-07-29T00:20:14;98029.59;;;12.84;100.0
64025;BME280;50266;57.446;26.936;2023-07-29T00:21:14;98031.73;;;12.92;100.0
64025;BME280;50266;57.446;26.936;2023-07-29T00:22:14;98030.28;;;12.97;100.0
64025;BME280;50266;57.446;26.936;2023-07-29T00:23:14;98032.17;;;12.95;100.0
64025;BME280;50266;57.446;26.936;2023-07-29T00:24:14;98030.65;;;13.0;100.0
64025;BME280;50266;57.446;26.936;2023-07-29T00:25:14;98026.19;;;13.04;100.0
64025;BME280;50266;57.446;26.936;2023-07-29T00:26:14;98031.45;;;12.86;100.0
64025;BME280;50266;57.446;26.936;2023-07-29T00:27:14;98028.19;;;12.96;100.0
64025;BME280;50266;57.446;26.936;2023-07-29T00:28:14;98029.55;;;12.99;100.0
64025;BME280;50266;57.446;26.936;2023-07-29T00:29:14;98035.09;;;12.95;100.0
64025;BME280;50266;57.446;26.936;2023-07-29T00:30:14;98032.45;;;12.89;100.0
64025;BME280;50266;57.446;26.936;2023-07-29T00:31:14;98032.19;;;12.96;100.0
64025;BME280;50266;57.446;26.936;2023-07-29T00:32:14;98029.47;;;12.88;100.0
64025;BME280;50266;57.446;26.936;2023-07-29T00:33:14;98031.61;;;12.85;100.0
64025;BME280;50266;57.446;26.936;2023-07-29T00:34:14;98035.09;;;12.95;100.0
64025;BME280;50266;57.446;26.936;2023-07-29T00:35:14;98036.95;;;12.86;100.0
64025;BME280;50266;57.446;26.936;2023-07-29T00:36:14;98037.23;;;12.93;100.0
64025;BME280;50266;57.446;26.936;2023-07-29T00:37:14;98039.61;;;12.97;100.0
64025;BME280;50266;57.446;26.936;2023-07-29T00:38:14;98039.23;;;13.01;100.0
64025;BME280;50266;57.446;26.936;2023-07-29T00:39:14;98033.92;;;13.02;100.0
64025;BME280;50266;57.446;26.936;2023-07-29T00:40:15;98038.66;;;13.01;100.0
64025;BME280;50266;57.446;26.936;2023-07-29T00:41:15;98041.19;;;12.96;100.0
64025;BME280;50266;57.446;26.936;2023-07-29T00:42:15;98044.03;;;12.96;100.0
64025;BME280;50266;57.446;26.936;2023-07-29T00:43:15;98046.36;;;12.96;100.0
64025;BME280;50266;57.446;26.936;2023-07-29T00:44:15;98048.48;;;12.82;100.0
64025;BME280;50266;57.446;26.936;2023-07-29T00:45:15;98045.73;;;12.82;100.0
64025;BME280;50266;57.446;26.936;2023-07-29T00:46:15;98041.13;;;12.88;100.0
64025;BME280;50266;57.446;26.936;2023-07-29T00:47:15;98041.91;;;12.94;100.0
64025;BME280;50266;57.446;26.936;2023-07-29T00:48:15;98042.3;;;12.91;100.0
64025;BME280;50266;57.446;26.936;2023-07-29T00:49:15;98043.47;;;12.88;100.0
64025;BME280;50266;57.446;26.936;2023-07-29T00:50:15;98040.14;;;12.92;100.0
64025;BME280;50266;57.446;26.936;2023-07-29T00:51:15;98039.45;;;12.87;100.0
64025;BME280;50266;57.446;26.936;2023-07-29T00:52:15;98037.54;;;12.87;100.0
64025;BME280;50266;57.446;26.936;2023-07-29T00:53:15;98039.92;;;12.84;100.0
64025;BME280;50266;57.446;26.936;2023-07-29T00:54:15;98042.38;;;12.89;100.0
64025;BME280;50266;57.446;26.936;2023-07-29T00:55:15;98038.14;;;12.88;100.0
64025;BME280;50266;57.446;26.936;2023-07-29T00:56:15;98040.47;;;12.88;100.0
64025;BME280;50266;57.446;26.936;2023-07-29T00:57:15;98042.89;;;12.91;100.0
64025;BME280;50266;57.446;26.936;2023-07-29T00:58:15;98042.03;;;12.89;100.0
64025;BME280;50266;57.446;26.936;2023-07-29T00:59:15;98041.94;;;12.86;100.0
64025;BME280;50266;57.446;26.936;2023-07-29T01:00:15;98039.48;;;12.81;100.0
64025;BME280;50266;57.446;26.936;2023-07-29T01:01:15;98045.44;;;12.86;100.0
64025;BME280;50266;57.446;26.936;2023-07-29T01:02:15;98042.57;;;12.82;100.0
64025;BME280;50266;57.446;26.936;2023-07-29T01:03:15;98041.38;;;12.79;100.0
64025;BME280;50266;57.446;26.936;2023-07-29T01:04:15;98043.69;;;12.78;100.0
64025;BME280;50266;57.446;26.936;2023-07-29T01:05:16;98043.73;;;12.82;100.0
64025;BME280;50266;57.446;26.936;2023-07-29T01:06:24;98043.3;;;12.8;100.0
64025;BME280;50266;57.446;26.936;2023-07-29T01:07:23;98043.99;;;12.82;100.0
64025;BME280;50266;57.446;26.936;2023-07-29T01:08:33;98041.16;;;12.83;100.0
64025;BME280;50266;57.446;26.936;2023-07-29T01:09:36;98037.05;;;12.8;100.0
64025;BME280;50266;57.446;26.936;2023-07-29T01:12:38;98037.07;;;12.82;100.0
64025;BME280;50266;57.446;26.936;2023-07-29T01:13:44;98034.97;;;12.73;100.0
64025;BME280;50266;57.446;26.936;2023-07-29T01:14:40;98037.73;;;12.74;100.0
64025;BME280;50266;57.446;26.936;2023-07-29T01:15:53;98035.02;;;12.77;100.0
64025;BME280;50266;57.446;26.936;2023-07-29T01:16:47;98031.5;;;12.83;100.0
64025;BME280;50266;57.446;26.936;2023-07-29T01:17:46;98034.54;;;12.79;100.0
64025;BME280;50266;57.446;26.936;2023-07-29T01:18:47;98034.43;;;12.77;100.0
64025;BME280;50266;57.446;26.936;2023-07-29T01:20:07;98028.08;;;12.83;100.0
64025;BME280;50266;57.446;26.936;2023-07-29T01:20:49;98026.66;;;12.83;100.0
64025;BME280;50266;57.446;26.936;2023-07-29T01:21:49;98026.33;;;12.76;100.0
64025;BME280;50266;57.446;26.936;2023-07-29T01:22:49;98020.19;;;12.77;100.0
64025;BME280;50266;57.446;26.936;2023-07-29T01:23:52;98022.55;;;12.8;100.0
64025;BME280;50266;57.446;26.936;2023-07-29T01:24:49;98023.67;;;12.76;100.0
64025;BME280;50266;57.446;26.936;2023-07-29T01:25:49;98021.62;;;12.79;100.0
64025;BME280;50266;57.446;26.936;2023-07-29T01:26:49;98023.22;;;12.81;100.0
64025;BME280;50266;57.446;26.936;2023-07-29T01:27:49;98018.7;;;12.79;100.0
64025;BME280;50266;57.446;26.936;2023-07-29T01:28:49;98022.64;;;12.73;100.0
64025;BME280;50266;57.446;26.936;2023-07-29T01:29:49;98022.08;;;12.75;100.0
64025;BME280;50266;57.446;26.936;2023-07-29T01:30:49;98025.47;;;12.8;100.0
64025;BME280;50266;57.446;26.936;2023-07-29T01:31:49;98021.08;;;12.75;100.0
64025;BME280;50266;57.446;26.936;2023-07-29T01:32:58;98028.5;;;12.65;100.0
64025;BME280;50266;57.446;26.936;2023-07-29T01:34:01;98024.96;;;12.62;100.0
64025;BME280;50266;57.446;26.936;2023-07-29T01:35:57;98023.28;;;12.67;100.0
64025;BME280;50266;57.446;26.936;2023-07-29T01:36:57;98019.26;;;12.68;100.0
64025;BME280;50266;57.446;26.936;2023-07-29T01:38:01;98018.02;;;12.77;100.0
64025;BME280;50266;57.446;26.936;2023-07-29T01:38:59;98019.77;;;12.76;100.0
64025;BME280;50266;57.446;26.936;2023-07-29T01:39:59;98022.01;;;12.76;100.0
64025;BME280;50266;57.446;26.936;2023-07-29T01:41:00;98021.91;;;12.75;100.0
64025;BME280;50266;57.446;26.936;2023-07-29T01:41:59;98020.98;;;12.74;100.0
64025;BME280;50266;57.446;26.936;2023-07-29T01:42:59;98024.67;;;12.76;100.0
64025;BME280;50266;57.446;26.936;2023-07-29T01:43:59;98023.09;;;12.76;100.0
64025;BME280;50266;57.446;26.936;2023-07-29T01:44:59;98025.42;;;12.76;100.0
64025;BME280;50266;57.446;26.936;2023-07-29T01:46:02;98018.34;;;12.69;100.0
64025;BME280;50266;57.446;26.936;2023-07-29T01:46:59;98020.05;;;12.72;100.0
64025;BME280;50266;57.446;26.936;2023-07-29T01:47:59;98018.36;;;12.78;100.0
64025;BME280;50266;57.446;26.936;2023-07-29T01:48:59;98015.99;;;12.82;100.0
64025;BME280;50266;57.446;26.936;2023-07-29T01:49:59;98015.98;;;12.73;100.0
64025;BME280;50266;57.446;26.936;2023-07-29T01:50:59;98015.92;;;12.76;100.0
64025;BME280;50266;57.446;26.936;2023-07-29T01:51:59;98012.1;;;12.77;100.0
64025;BME280;50266;57.446;26.936;2023-07-29T01:52:59;98009.08;;;12.74;100.0
64025;BME280;50266;57.446;26.936;2023-07-29T01:53:59;98011.16;;;12.74;100.0
64025;BME280;50266;57.446;26.936;2023-07-29T01:54:59;98014.36;;;12.7;100.0
64025;BME280;50266;57.446;26.936;2023-07-29T01:55:59;98010.2;;;12.78;100.0
64025;BME280;50266;57.446;26.936;2023-07-29T01:56:59;98010.17;;;12.76;100.0
64025;BME280;50266;57.446;26.936;2023-07-29T01:57:59;98012.94;;;12.77;100.0
64025;BME280;50266;57.446;26.936;2023-07-29T01:58:59;98015.95;;;12.78;100.0
64025;BME280;50266;57.446;26.936;2023-07-29T01:59:59;98015.03;;;12.78;100.0
64025;BME280;50266;57.446;26.936;2023-07-29T02:00:59;98018.84;;;12.83;100.0
64025;BME280;50266;57.446;26.936;2023-07-29T02:01:59;98014.05;;;12.8;100.0
64025;BME280;50266;57.446;26.936;2023-07-29T02:02:59;98016.62;;;12.79;100.0
64025;BME280;50266;57.446;26.936;2023-07-29T02:03:59;98020.88;;;12.86;100.0
64025;BME280;50266;57.446;26.936;2023-07-29T02:04:59;98022.89;;;12.81;100.0
64025;BME280;50266;57.446;26.936;2023-07-29T02:05:59;98024.12;;;12.79;100.0
64025;BME280;50266;57.446;26.936;2023-07-29T02:06:59;98024.16;;;12.82;100.0
64025;BME280;50266;57.446;26.936;2023-07-29T02:07:59;98022.61;;;12.78;100.0
64025;BME280;50266;57.446;26.936;2023-07-29T02:08:59;98023.67;;;12.76;100.0
64025;BME280;50266;57.446;26.936;2023-07-29T02:09:59;98021.64;;;12.8;100.0
64025;BME280;50266;57.446;26.936;2023-07-29T02:10:59;98027.48;;;12.81;100.0
64025;BME280;50266;57.446;26.936;2023-07-29T02:11:59;98027.41;;;12.74;100.0
64025;BME280;50266;57.446;26.936;2023-07-29T02:12:59;98027.83;;;12.75;100.0
64025;BME280;50266;57.446;26.936;2023-07-29T02:13:59;98029.08;;;12.75;100.0
64025;BME280;50266;57.446;26.936;2023-07-29T02:14:59;98029.48;;;12.74;100.0
64025;BME280;50266;57.446;26.936;2023-07-29T02:16:00;98029.33;;;12.75;100.0
64025;BME280;50266;57.446;26.936;2023-07-29T02:17:00;98028.22;;;12.73;100.0
64025;BME280;50266;57.446;26.936;2023-07-29T02:18:00;98027.53;;;12.78;100.0
64025;BME280;50266;57.446;26.936;2023-07-29T02:19:00;98030.27;;;12.77;100.0
64025;BME280;50266;57.446;26.936;2023-07-29T02:20:00;98030.95;;;12.79;100.0
64025;BME280;50266;57.446;26.936;2023-07-29T02:21:00;98031.76;;;12.76;100.0
64025;BME280;50266;57.446;26.936;2023-07-29T02:22:00;98034.97;;;12.8;100.0
64025;BME280;50266;57.446;26.936;2023-07-29T02:23:00;98034.88;;;12.8;100.0
64025;BME280;50266;57.446;26.936;2023-07-29T02:24:00;98039.86;;;12.78;100.0
64025;BME280;50266;57.446;26.936;2023-07-29T02:25:00;98037.11;;;12.78;100.0
64025;BME280;50266;57.446;26.936;2023-07-29T02:26:00;98034.86;;;12.78;100.0
64025;BME280;50266;57.446;26.936;2023-07-29T02:27:00;98032.55;;;12.73;100.0
64025;BME280;50266;57.446;26.936;2023-07-29T02:28:00;98032.67;;;12.76;100.0
64025;BME280;50266;57.446;26.936;2023-07-29T02:29:00;98036.3;;;12.73;100.0
64025;BME280;50266;57.446;26.936;2023-07-29T02:30:00;98033.15;;;12.74;100.0
64025;BME280;50266;57.446;26.936;2023-07-29T02:32:05;98028.23;;;12.74;100.0
64025;BME280;50266;57.446;26.936;2023-07-29T02:33:05;98028.99;;;12.75;100.0
64025;BME280;50266;57.446;26.936;2023-07-29T02:34:05;98030.66;;;12.83;100.0
64025;BME280;50266;57.446;26.936;2023-07-29T02:35:05;98026.01;;;12.76;100.0
64025;BME280;50266;57.446;26.936;2023-07-29T02:36:05;98028.95;;;12.78;100.0
64025;BME280;50266;57.446;26.936;2023-07-29T02:37:05;98031.03;;;12.78;100.0
64025;BME280;50266;57.446;26.936;2023-07-29T02:38:05;98032.25;;;12.83;100.0
64025;BME280;50266;57.446;26.936;2023-07-29T02:39:05;98030.03;;;12.86;100.0
64025;BME280;50266;57.446;26.936;2023-07-29T02:40:06;98031.14;;;12.91;100.0
64025;BME280;50266;57.446;26.936;2023-07-29T02:41:06;98033.05;;;12.8;100.0
64025;BME280;50266;57.446;26.936;2023-07-29T02:42:06;98031.9;;;12.74;100.0
64025;BME280;50266;57.446;26.936;2023-07-29T02:43:06;98028.36;;;12.78;100.0
64025;BME280;50266;57.446;26.936;2023-07-29T02:44:06;98029.62;;;12.79;100.0
64025;BME280;50266;57.446;26.936;2023-07-29T02:45:06;98028.84;;;12.84;100.0
64025;BME280;50266;57.446;26.936;2023-07-29T02:46:06;98028.81;;;12.81;100.0
64025;BME280;50266;57.446;26.936;2023-07-29T02:47:06;98035.2;;;12.86;100.0
64025;BME280;50266;57.446;26.936;2023-07-29T02:48:06;98029.62;;;12.87;100.0
64025;BME280;50266;57.446;26.936;2023-07-29T02:49:06;98034.08;;;12.93;100.0
64025;BME280;50266;57.446;26.936;2023-07-29T02:50:06;98034.64;;;12.88;100.0
64025;BME280;50266;57.446;26.936;2023-07-29T02:51:06;98032.12;;;12.86;100.0
64025;BME280;50266;57.446;26.936;2023-07-29T02:52:06;98034.84;;;12.83;100.0
64025;BME280;50266;57.446;26.936;2023-07-29T02:53:06;98032.66;;;12.83;100.0
64025;BME280;50266;57.446;26.936;2023-07-29T02:54:06;98032.05;;;12.8;100.0
64025;BME280;50266;57.446;26.936;2023-07-29T02:55:06;98031.66;;;12.74;100.0
64025;BME280;50266;57.446;26.936;2023-07-29T02:56:06;98030.67;;;12.76;100.0
64025;BME280;50266;57.446;26.936;2023-07-29T02:57:06;98031.34;;;12.77;100.0
64025;BME280;50266;57.446;26.936;2023-07-29T02:58:06;98030.55;;;12.81;100.0
64025;BME280;50266;57.446;26.936;2023-07-29T02:59:06;98030.54;;;12.79;100.0
64025;BME280;50266;57.446;26.936;2023-07-29T03:00:06;98033.06;;;12.82;100.0
64025;BME280;50266;57.446;26.936;2023-07-29T03:01:06;98040.25;;;12.83;100.0
64025;BME280;50266;57.446;26.936;2023-07-29T03:02:06;98036.75;;;12.83;100.0
64025;BME280;50266;57.446;26.936;2023-07-29T03:03:06;98035.08;;;12.83;100.0
64025;BME280;50266;57.446;26.936;2023-07-29T03:04:06;98040.11;;;12.85;100.0
64025;BME280;50266;57.446;26.936;2023-07-29T03:05:07;98038.7;;;12.78;100.0
64025;BME280;50266;57.446;26.936;2023-07-29T03:06:07;98039.36;;;12.79;100.0
64025;BME280;50266;57.446;26.936;2023-07-29T03:07:06;98043.2;;;12.86;100.0
64025;BME280;50266;57.446;26.936;2023-07-29T03:08:06;98044.36;;;12.85;100.0
64025;BME280;50266;57.446;26.936;2023-07-29T03:09:07;98045.4;;;12.82;100.0
64025;BME280;50266;57.446;26.936;2023-07-29T03:10:07;98041.26;;;12.84;100.0
64025;BME280;50266;57.446;26.936;2023-07-29T03:11:08;98045.28;;;12.86;100.0
64025;BME280;50266;57.446;26.936;2023-07-29T03:12:07;98047.32;;;12.75;100.0
64025;BME280;50266;57.446;26.936;2023-07-29T03:13:07;98045.8;;;12.73;100.0
64025;BME280;50266;57.446;26.936;2023-07-29T03:14:07;98048.05;;;12.73;100.0
64025;BME280;50266;57.446;26.936;2023-07-29T03:15:07;98047.88;;;12.79;100.0
64025;BME280;50266;57.446;26.936;2023-07-29T03:16:07;98045.9;;;12.82;100.0
64025;BME280;50266;57.446;26.936;2023-07-29T03:17:07;98044.35;;;12.78;100.0
64025;BME280;50266;57.446;26.936;2023-07-29T03:18:07;98042.12;;;12.79;100.0
64025;BME280;50266;57.446;26.936;2023-07-29T03:19:07;98039.97;;;12.8;100.0
64025;BME280;50266;57.446;26.936;2023-07-29T03:20:07;98044.11;;;12.78;100.0
64025;BME280;50266;57.446;26.936;2023-07-29T03:21:07;98043.8;;;12.8;100.0
64025;BME280;50266;57.446;26.936;2023-07-29T03:22:07;98046.64;;;12.81;100.0
64025;BME280;50266;57.446;26.936;2023-07-29T03:23:07;98048.16;;;12.76;100.0
64025;BME280;50266;57.446;26.936;2023-07-29T03:24:07;98047.01;;;12.77;100.0
64025;BME280;50266;57.446;26.936;2023-07-29T03:25:07;98046.21;;;12.8;100.0
64025;BME280;50266;57.446;26.936;2023-07-29T03:26:07;98050.36;;;12.86;100.0
64025;BME280;50266;57.446;26.936;2023-07-29T03:27:07;98059.72;;;12.88;100.0
64025;BME280;50266;57.446;26.936;2023-07-29T03:28:07;98061.02;;;12.85;100.0
64025;BME280;50266;57.446;26.936;2023-07-29T03:29:07;98059.52;;;12.85;100.0
64025;BME280;50266;57.446;26.936;2023-07-29T03:30:08;98059.45;;;12.8;100.0
64025;BME280;50266;57.446;26.936;2023-07-29T03:31:07;98062.62;;;12.8;100.0
64025;BME280;50266;57.446;26.936;2023-07-29T03:32:07;98064.86;;;12.78;100.0
64025;BME280;50266;57.446;26.936;2023-07-29T03:33:07;98066.4;;;12.75;100.0
64025;BME280;50266;57.446;26.936;2023-07-29T03:34:07;98067.55;;;12.74;100.0
64025;BME280;50266;57.446;26.936;2023-07-29T03:35:08;98064.76;;;12.7;100.0
64025;BME280;50266;57.446;26.936;2023-07-29T03:36:07;98062.97;;;12.74;100.0
64025;BME280;50266;57.446;26.936;2023-07-29T03:37:07;98062.98;;;12.74;100.0
64025;BME280;50266;57.446;26.936;2023-07-29T03:38:08;98064.66;;;12.69;100.0
64025;BME280;50266;57.446;26.936;2023-07-29T03:39:08;98068.8;;;12.73;100.0
64025;BME280;50266;57.446;26.936;2023-07-29T03:40:08;98068.5;;;12.77;100.0
64025;BME280;50266;57.446;26.936;2023-07-29T03:41:08;98068.98;;;12.74;100.0
64025;BME280;50266;57.446;26.936;2023-07-29T03:42:08;98070.98;;;12.76;100.0
64025;BME280;50266;57.446;26.936;2023-07-29T03:43:08;98070.88;;;12.8;100.0
64025;BME280;50266;57.446;26.936;2023-07-29T03:44:08;98072.96;;;12.8;100.0
64025;BME280;50266;57.446;26.936;2023-07-29T03:45:08;98074.08;;;12.83;100.0
64025;BME280;50266;57.446;26.936;2023-07-29T03:46:08;98075.93;;;12.85;100.0
64025;BME280;50266;57.446;26.936;2023-07-29T03:47:08;98073.86;;;12.86;100.0
64025;BME280;50266;57.446;26.936;2023-07-29T03:48:08;98077.31;;;12.82;100.0
64025;BME280;50266;57.446;26.936;2023-07-29T03:49:08;98077.88;;;12.9;100.0
64025;BME280;50266;57.446;26.936;2023-07-29T03:50:08;98078.09;;;12.85;100.0
64025;BME280;50266;57.446;26.936;2023-07-29T03:51:08;98085.88;;;12.87;100.0
64025;BME280;50266;57.446;26.936;2023-07-29T03:52:08;98084.56;;;12.92;100.0
64025;BME280;50266;57.446;26.936;2023-07-29T03:53:08;98083.49;;;12.93;100.0
64025;BME280;50266;57.446;26.936;2023-07-29T03:54:08;98088.55;;;12.88;100.0
64025;BME280;50266;57.446;26.936;2023-07-29T03:55:08;98087.2;;;12.87;100.0
64025;BME280;50266;57.446;26.936;2023-07-29T03:56:08;98082.53;;;12.89;100.0
64025;BME280;50266;57.446;26.936;2023-07-29T03:57:08;98084.61;;;12.89;100.0
64025;BME280;50266;57.446;26.936;2023-07-29T03:58:08;98085.05;;;12.91;100.0
64025;BME280;50266;57.446;26.936;2023-07-29T03:59:08;98085.59;;;12.95;100.0
64025;BME280;50266;57.446;26.936;2023-07-29T04:00:08;98091.44;;;12.89;100.0
64025;BME280;50266;57.446;26.936;2023-07-29T04:01:08;98092.8;;;12.88;100.0
64025;BME280;50266;57.446;26.936;2023-07-29T04:02:08;98088.61;;;12.86;100.0
64025;BME280;50266;57.446;26.936;2023-07-29T04:03:08;98093.35;;;12.85;100.0
64025;BME280;50266;57.446;26.936;2023-07-29T04:04:08;98091.03;;;12.87;100.0
64025;BME280;50266;57.446;26.936;2023-07-29T04:05:08;98095.78;;;12.86;100.0
64025;BME280;50266;57.446;26.936;2023-07-29T04:06:08;98096.59;;;12.84;100.0
64025;BME280;50266;57.446;26.936;2023-07-29T04:07:08;98097.1;;;12.85;100.0
64025;BME280;50266;57.446;26.936;2023-07-29T04:08:08;98093.82;;;12.83;100.0
64025;BME280;50266;57.446;26.936;2023-07-29T04:09:08;98096.29;;;12.87;100.0
64025;BME280;50266;57.446;26.936;2023-07-29T04:10:08;98096.47;;;12.91;100.0
64025;BME280;50266;57.446;26.936;2023-07-29T04:11:08;98099.2;;;12.97;100.0
64025;BME280;50266;57.446;26.936;2023-07-29T04:12:08;98099.9;;;12.99;100.0
64025;BME280;50266;57.446;26.936;2023-07-29T04:13:08;98103.34;;;12.94;100.0
64025;BME280;50266;57.446;26.936;2023-07-29T04:14:08;98102.9;;;12.99;100.0
64025;BME280;50266;57.446;26.936;2023-07-29T04:15:08;98099.02;;;12.95;100.0
64025;BME280;50266;57.446;26.936;2023-07-29T04:16:08;98096.31;;;12.92;100.0
64025;BME280;50266;57.446;26.936;2023-07-29T04:17:08;98100.34;;;12.95;100.0
64025;BME280;50266;57.446;26.936;2023-07-29T04:18:08;98098.53;;;12.97;100.0
64025;BME280;50266;57.446;26.936;2023-07-29T04:19:08;98099.79;;;12.97;100.0
64025;BME280;50266;57.446;26.936;2023-07-29T04:20:09;98097.02;;;12.95;100.0
64025;BME280;50266;57.446;26.936;2023-07-29T04:21:08;98096.62;;;12.97;100.0
64025;BME280;50266;57.446;26.936;2023-07-29T04:22:08;98096.55;;;12.98;100.0
64025;BME280;50266;57.446;26.936;2023-07-29T04:23:08;98093.16;;;13.01;100.0
64025;BME280;50266;57.446;26.936;2023-07-29T04:24:08;98092.66;;;12.93;100.0
64025;BME280;50266;57.446;26.936;2023-07-29T04:25:08;98089.11;;;13.03;100.0
64025;BME280;50266;57.446;26.936;2023-07-29T04:26:08;98089.65;;;13.07;100.0
64025;BME280;50266;57.446;26.936;2023-07-29T04:27:08;98089.81;;;13.1;100.0
64025;BME280;50266;57.446;26.936;2023-07-29T04:28:08;98090.06;;;13.1;100.0
64025;BME280;50266;57.446;26.936;2023-07-29T04:29:08;98091.22;;;13.06;100.0
64025;BME280;50266;57.446;26.936;2023-07-29T04:30:08;98096.69;;;13.13;100.0
64025;BME280;50266;57.446;26.936;2023-07-29T04:31:08;98097.64;;;13.06;100.0
64025;BME280;50266;57.446;26.936;2023-07-29T04:32:08;98091.34;;;13.12;100.0
64025;BME280;50266;57.446;26.936;2023-07-29T04:33:08;98089.7;;;13.04;100.0
64025;BME280;50266;57.446;26.936;2023-07-29T04:34:08;98089.73;;;13.08;100.0
64025;BME280;50266;57.446;26.936;2023-07-29T04:35:08;98089.81;;;13.07;100.0
64025;BME280;50266;57.446;26.936;2023-07-29T04:36:09;98089.92;;;13.12;100.0
64025;BME280;50266;57.446;26.936;2023-07-29T04:37:09;98087.08;;;13.16;100.0
64025;BME280;50266;57.446;26.936;2023-07-29T04:38:09;98089.74;;;13.16;100.0
64025;BME280;50266;57.446;26.936;2023-07-29T04:39:09;98082.09;;;13.13;100.0
64025;BME280;50266;57.446;26.936;2023-07-29T04:40:09;98081.59;;;13.18;100.0
64025;BME280;50266;57.446;26.936;2023-07-29T04:41:09;98079.58;;;13.16;100.0
64025;BME280;50266;57.446;26.936;2023-07-29T04:42:09;98078.66;;;13.16;100.0
64025;BME280;50266;57.446;26.936;2023-07-29T04:43:09;98079.48;;;13.11;100.0
64025;BME280;50266;57.446;26.936;2023-07-29T04:44:09;98079.73;;;13.1;100.0
64025;BME280;50266;57.446;26.936;2023-07-29T04:45:09;98078.55;;;13.06;100.0
64025;BME280;50266;57.446;26.936;2023-07-29T04:46:09;98080.02;;;13.03;100.0
64025;BME280;50266;57.446;26.936;2023-07-29T04:47:09;98077.05;;;13.06;100.0
64025;BME280;50266;57.446;26.936;2023-07-29T04:48:09;98079.12;;;12.97;100.0
64025;BME280;50266;57.446;26.936;2023-07-29T04:49:09;98083.3;;;12.98;100.0
64025;BME280;50266;57.446;26.936;2023-07-29T04:50:09;98081.53;;;12.96;100.0
64025;BME280;50266;57.446;26.936;2023-07-29T04:51:09;98077.71;;;12.98;100.0
64025;BME280;50266;57.446;26.936;2023-07-29T04:52:09;98075.61;;;12.96;100.0
64025;BME280;50266;57.446;26.936;2023-07-29T04:53:09;98079.52;;;13.03;100.0
64025;BME280;50266;57.446;26.936;2023-07-29T04:54:09;98073.27;;;13.03;100.0
64025;BME280;50266;57.446;26.936;2023-07-29T04:55:09;98075.34;;;12.94;100.0
64025;BME280;50266;57.446;26.936;2023-07-29T04:56:09;98078.06;;;13.0;100.0
64025;BME280;50266;57.446;26.936;2023-07-29T04:57:09;98081.91;;;13.0;100.0
64025;BME280;50266;57.446;26.936;2023-07-29T04:58:09;98083.31;;;12.99;100.0
64025;BME280;50266;57.446;26.936;2023-07-29T04:59:09;98078.55;;;12.98;100.0
64025;BME280;50266;57.446;26.936;2023-07-29T05:00:09;98081.27;;;13.03;100.0
64025;BME280;50266;57.446;26.936;2023-07-29T05:01:09;98081.03;;;12.97;100.0
64025;BME280;50266;57.446;26.936;2023-07-29T05:02:09;98078.56;;;13.0;100.0
64025;BME280;50266;57.446;26.936;2023-07-29T05:03:09;98081.81;;;13.0;100.0
64025;BME280;50266;57.446;26.936;2023-07-29T05:04:09;98082.4;;;12.99;100.0
64025;BME280;50266;57.446;26.936;2023-07-29T05:05:09;98083.31;;;13.0;100.0
64025;BME280;50266;57.446;26.936;2023-07-29T05:06:09;98080.53;;;13.04;100.0
64025;BME280;50266;57.446;26.936;2023-07-29T05:07:09;98084.13;;;12.98;100.0
64025;BME280;50266;57.446;26.936;2023-07-29T05:08:09;98086.94;;;13.03;100.0
64025;BME280;50266;57.446;26.936;2023-07-29T05:09:12;98087.06;;;13.07;100.0
64025;BME280;50266;57.446;26.936;2023-07-29T05:10:09;98089.02;;;13.03;100.0
64025;BME280;50266;57.446;26.936;2023-07-29T05:11:09;98090.31;;;13.09;100.0
64025;BME280;50266;57.446;26.936;2023-07-29T05:12:09;98093.48;;;13.07;100.0
64025;BME280;50266;57.446;26.936;2023-07-29T05:13:09;98094.52;;;13.13;100.0
64025;BME280;50266;57.446;26.936;2023-07-29T05:14:09;98097.86;;;13.03;100.0
64025;BME280;50266;57.446;26.936;2023-07-29T05:15:10;98100.15;;;13.09;100.0
64025;BME280;50266;57.446;26.936;2023-07-29T05:16:09;98098.73;;;13.1;100.0
64025;BME280;50266;57.446;26.936;2023-07-29T05:17:09;98100.49;;;13.11;100.0
64025;BME280;50266;57.446;26.936;2023-07-29T05:18:09;98099.66;;;13.11;100.0
64025;BME280;50266;57.446;26.936;2023-07-29T05:19:09;98096.08;;;13.16;100.0